Time;durP1;ratioP1;P1;durP2;ratioP2;P2;SDS_P1;SDS_P2;PMS_P1;PMS_P2;Temp;Humidity;BMP_temperature;BMP_pressure;BME280_temperature;BME280_humidity;BME280_pressure;Samples;Min_cycle;Max_cycle;Signal;HPM_P1;HPM_P2
2022/12/17 13:06:37;;;;;;;0.40;0.40;;;0.80;78.60;;;;;;5076528;28;20291;-69
2022/12/17 13:09:15;;;;;;;0.30;0.30;;;0.80;79.30;;;;;;5075336;28;20229;-69
2022/12/17 13:11:44;;;;;;;0.40;0.40;;;0.60;77.80;;;;;;5076153;28;20176;-69
2022/12/17 13:14:23;;;;;;;0.30;0.30;;;0.60;77.30;;;;;;5075973;28;20173;-69
2022/12/17 13:17:05;;;;;;;0.30;0.30;;;0.60;76.70;;;;;;5076093;28;20170;-69
2022/12/17 13:19:35;;;;;;;0.30;0.30;;;0.60;75.90;;;;;;5076034;28;20714;-69
2022/12/17 13:22:21;;;;;;;0.50;0.50;;;0.50;76.20;;;;;;5076091;28;20642;-69
2022/12/17 13:24:49;;;;;;;4.70;2.15;;;0.50;76.70;;;;;;5075076;28;20182;-69
2022/12/17 13:27:35;;;;;;;0.30;0.30;;;0.40;75.90;;;;;;5075805;28;20702;-69
2022/12/17 13:30:15;;;;;;;0.30;0.30;;;0.40;76.90;;;;;;5075609;28;20194;-69
2022/12/17 13:33:20;;;;;;;0.55;0.55;;;0.40;77.30;;;;;;5074190;28;20176;-68
2022/12/17 13:36:03;;;;;;;0.63;0.63;;;0.40;77.50;;;;;;5075424;28;20268;-67
2022/12/17 13:38:52;;;;;;;0.30;0.30;;;0.30;77.80;;;;;;5075610;28;20264;-67
2022/12/17 13:41:20;;;;;;;1.05;0.80;;;0.30;77.90;;;;;;5076287;28;20162;-67
2022/12/17 13:43:58;;;;;;;0.30;0.30;;;0.30;77.80;;;;;;5074820;28;20185;-67
2022/12/17 13:46:33;;;;;;;0.40;0.40;;;0.30;78.80;;;;;;5075460;28;20252;-66
2022/12/17 13:49:01;;;;;;;0.40;0.40;;;0.40;79.10;;;;;;5075998;28;20552;-71
2022/12/17 13:51:30;;;;;;;0.40;0.40;;;0.10;78.70;;;;;;5075744;28;20260;-67
2022/12/17 13:54:01;;;;;;;0.40;0.40;;;-0.30;80.30;;;;;;5075646;28;20546;-66
2022/12/17 13:56:36;;;;;;;0.40;0.40;;;-0.40;82.20;;;;;;5075654;28;20574;-67
2022/12/17 13:59:04;;;;;;;0.47;0.47;;;-0.70;82.10;;;;;;5073874;28;20700;-67
2022/12/17 14:01:31;;;;;;;0.30;0.30;;;-0.60;81.80;;;;;;5075010;28;20543;-67
2022/12/17 14:04:01;;;;;;;0.40;0.40;;;-0.60;82.30;;;;;;5075222;28;20165;-67
2022/12/17 14:06:34;;;;;;;0.30;0.30;;;-0.70;83.40;;;;;;5075164;28;20170;-67
2022/12/17 14:09:01;;;;;;;0.40;0.40;;;-0.60;84.10;;;;;;5074971;28;20212;-67
2022/12/17 14:14:29;;;;;;;0.30;0.30;;;-0.40;84.80;;;;;;5074729;28;20536;-68
2022/12/17 14:16:54;;;;;;;0.40;0.40;;;-0.30;85.80;;;;;;5074770;28;20176;-68
2022/12/17 14:19:21;;;;;;;1.00;1.00;;;-0.20;84.90;;;;;;5074529;28;20557;-68
2022/12/17 14:21:47;;;;;;;0.40;0.40;;;-0.20;83.10;;;;;;5074734;28;20756;-67
2022/12/17 14:24:13;;;;;;;0.40;0.40;;;-0.10;83.30;;;;;;5074218;28;20174;-67
2022/12/17 14:26:50;;;;;;;0.40;0.40;;;0.00;83.30;;;;;;5074671;28;20797;-67
2022/12/17 14:29:22;;;;;;;0.40;0.40;;;0.00;82.30;;;;;;5074446;28;20608;-68
2022/12/17 14:31:56;;;;;;;0.30;0.30;;;-0.30;83.40;;;;;;5074514;28;20157;-67
2022/12/17 14:34:22;;;;;;;0.30;0.30;;;-0.30;84.30;;;;;;5074484;28;20223;-68
2022/12/17 14:36:59;;;;;;;0.40;0.40;;;-0.20;84.30;;;;;;5074386;28;20182;-67
2022/12/17 14:39:31;;;;;;;0.40;0.40;;;-0.20;83.80;;;;;;5074503;28;20189;-68
2022/12/17 14:42:24;;;;;;;0.40;0.40;;;-0.20;84.10;;;;;;5074366;28;20161;-68
2022/12/17 14:45:01;;;;;;;0.40;0.40;;;-0.30;85.00;;;;;;5074097;28;20256;-68
2022/12/17 14:47:32;;;;;;;0.50;0.50;;;-0.30;85.60;;;;;;5074472;28;20250;-68
2022/12/17 14:50:18;;;;;;;0.95;0.95;;;-0.30;86.10;;;;;;5074062;28;20276;-68
2022/12/17 14:52:46;;;;;;;0.40;0.40;;;-0.30;86.30;;;;;;5073467;28;20276;-68
2022/12/17 14:55:24;;;;;;;0.30;0.30;;;-0.30;86.60;;;;;;5073855;28;20244;-68
2022/12/17 14:57:51;;;;;;;0.65;0.65;;;-0.30;86.80;;;;;;5074077;28;20192;-68
2022/12/17 15:00:17;;;;;;;0.40;0.40;;;-0.30;87.30;;;;;;5073897;28;20217;-68
2022/12/17 15:02:44;;;;;;;0.30;0.30;;;-0.50;87.70;;;;;;5074111;28;20165;-68
2022/12/17 15:05:14;;;;;;;0.88;0.88;;;-0.60;88.50;;;;;;5072007;28;20642;-67
2022/12/17 15:07:40;;;;;;;0.43;0.43;;;-0.50;89.40;;;;;;5073745;28;20193;-67
2022/12/17 15:10:12;;;;;;;0.83;0.80;;;-0.60;89.60;;;;;;5073772;28;20316;-68
2022/12/17 15:12:41;;;;;;;1.25;0.93;;;-0.80;90.20;;;;;;5073912;28;20214;-68
2022/12/17 15:15:07;;;;;;;0.40;0.40;;;-0.80;90.50;;;;;;5073710;28;20720;-68
2022/12/17 15:17:32;;;;;;;0.50;0.50;;;-0.80;91.00;;;;;;5072225;28;20177;-68
2022/12/17 15:19:58;;;;;;;0.30;0.30;;;-0.80;91.60;;;;;;5073644;28;20587;-68
2022/12/17 15:22:24;;;;;;;0.50;0.50;;;-0.90;92.00;;;;;;5074058;28;20261;-68
2022/12/17 15:24:50;;;;;;;0.60;0.60;;;-1.10;92.50;;;;;;5073759;28;20182;-69
2022/12/17 15:27:16;;;;;;;0.40;0.40;;;-1.20;92.90;;;;;;5073834;28;20197;-68
2022/12/17 15:29:44;;;;;;;0.40;0.40;;;-1.30;93.20;;;;;;5074098;28;20424;-68
2022/12/17 15:32:22;;;;;;;0.50;0.50;;;-1.40;93.20;;;;;;5074200;28;20685;-67
2022/12/17 15:34:49;;;;;;;0.40;0.40;;;-1.40;93.30;;;;;;5073804;28;20178;-67
2022/12/17 15:37:15;;;;;;;1.50;1.27;;;-1.60;93.30;;;;;;5072015;28;20220;-68
2022/12/17 15:39:41;;;;;;;0.50;0.50;;;-1.60;93.60;;;;;;5074158;28;20193;-68
2022/12/17 15:44:52;;;;;;;2.35;2.25;;;-1.70;94.00;;;;;;5073691;28;20268;-68
2022/12/17 15:47:17;;;;;;;0.80;0.80;;;-1.70;94.20;;;;;;5073466;28;20741;-67
2022/12/17 15:49:43;;;;;;;0.50;0.50;;;-1.60;94.30;;;;;;5072411;28;20185;-70
2022/12/17 15:52:09;;;;;;;0.40;0.40;;;-1.60;94.10;;;;;;5073790;28;20253;-67
2022/12/17 15:54:35;;;;;;;0.50;0.50;;;-1.60;94.10;;;;;;5073511;28;20211;-67
2022/12/17 15:57:01;;;;;;;0.40;0.40;;;-1.50;94.00;;;;;;5073455;28;20170;-70
2022/12/17 15:59:26;;;;;;;1.00;0.77;;;-1.50;94.10;;;;;;5073579;28;20597;-67
2022/12/17 16:01:52;;;;;;;0.30;0.30;;;-1.50;94.10;;;;;;5073458;28;20600;-68
2022/12/17 16:04:17;;;;;;;0.70;0.70;;;-1.50;94.00;;;;;;5073274;28;20174;-69
2022/12/17 16:06:43;;;;;;;0.40;0.40;;;-1.60;94.00;;;;;;5073693;28;20166;-68
2022/12/17 16:09:09;;;;;;;0.50;0.50;;;-1.60;94.20;;;;;;5073279;28;20578;-67
2022/12/17 16:11:34;;;;;;;0.40;0.40;;;-1.60;94.10;;;;;;5073822;28;20230;-68
2022/12/17 16:14:00;;;;;;;0.40;0.40;;;-1.70;94.10;;;;;;5073112;28;20676;-67
2022/12/17 16:16:25;;;;;;;0.40;0.40;;;-1.70;94.00;;;;;;5072207;28;20231;-68
2022/12/17 16:18:51;;;;;;;0.70;0.70;;;-1.80;93.80;;;;;;5077168;28;20229;-68
2022/12/17 16:21:17;;;;;;;0.90;0.90;;;-1.80;93.40;;;;;;5077151;28;20215;-68
2022/12/17 16:23:43;;;;;;;0.70;0.70;;;-1.80;93.40;;;;;;5077081;28;20961;-68
2022/12/17 16:26:10;;;;;;;0.50;0.50;;;-1.90;93.40;;;;;;5076865;28;20165;-68
2022/12/17 16:28:36;;;;;;;0.50;0.50;;;-2.00;93.50;;;;;;5075956;28;20215;-68
2022/12/17 16:31:07;;;;;;;0.33;0.33;;;-2.20;93.60;;;;;;5076191;28;20173;-68
2022/12/17 16:33:35;;;;;;;0.45;0.45;;;-2.30;94.00;;;;;;5075624;28;20908;-68
2022/12/17 16:36:02;;;;;;;0.40;0.40;;;-2.20;94.40;;;;;;5074867;28;20609;-70
2022/12/17 16:38:27;;;;;;;0.70;0.70;;;-2.20;94.10;;;;;;5076936;28;20197;-67
2022/12/17 16:40:58;;;;;;;0.40;0.40;;;-2.30;93.90;;;;;;5076610;28;20174;-68
2022/12/17 16:43:25;;;;;;;1.67;1.58;;;-2.30;93.80;;;;;;5076767;28;20616;-68
2022/12/17 16:45:52;;;;;;;0.40;0.40;;;-2.50;93.90;;;;;;5076658;28;20260;-67
2022/12/17 16:48:18;;;;;;;1.33;1.33;;;-2.50;93.80;;;;;;5076627;28;20197;-69
2022/12/17 16:50:45;;;;;;;0.50;0.50;;;-2.60;94.00;;;;;;5077042;28;20174;-69
2022/12/17 16:53:11;;;;;;;2.85;2.75;;;-2.60;94.10;;;;;;5076623;28;20299;-70
2022/12/17 16:55:44;;;;;;;0.50;0.50;;;-2.70;93.90;;;;;;5076328;28;20217;-68
2022/12/17 16:58:10;;;;;;;0.40;0.40;;;-2.70;96.70;;;;;;5076429;28;20852;-67
2022/12/17 17:00:36;;;;;;;0.50;0.50;;;-2.70;94.20;;;;;;5076654;28;20174;-66
2022/12/17 17:03:03;;;;;;;0.50;0.50;;;-2.80;94.20;;;;;;5076371;28;20412;-67
2022/12/17 17:05:34;;;;;;;0.60;0.60;;;-2.90;94.20;;;;;;5076093;28;20432;-69
2022/12/17 17:08:00;;;;;;;0.70;0.70;;;-2.90;94.60;;;;;;5076082;28;20602;-68
2022/12/17 17:10:26;;;;;;;0.68;0.68;;;-3.00;94.40;;;;;;5076508;28;20162;-68
2022/12/17 17:12:53;;;;;;;0.55;0.55;;;-3.00;94.60;;;;;;5076230;28;20174;-68
2022/12/17 17:15:19;;;;;;;0.40;0.40;;;-3.10;94.60;;;;;;5076395;28;20244;-70
2022/12/17 17:17:45;;;;;;;0.50;0.50;;;-3.10;94.60;;;;;;5076328;28;20577;-67
2022/12/17 17:20:11;;;;;;;0.70;0.70;;;-3.10;94.60;;;;;;5076500;28;20268;-68
2022/12/17 17:22:36;;;;;;;0.40;0.40;;;-3.10;94.30;;;;;;5076587;28;20177;-67
2022/12/17 17:25:02;;;;;;;0.40;0.40;;;-3.10;94.30;;;;;;5075804;28;20229;-68
2022/12/17 17:27:28;;;;;;;0.85;0.85;;;-3.20;94.30;;;;;;5076156;28;20200;-67
2022/12/17 17:29:55;;;;;;;0.40;0.40;;;-3.20;94.30;;;;;;5074170;28;20627;-65
2022/12/17 17:32:21;;;;;;;0.50;0.50;;;-3.30;94.60;;;;;;5076162;28;20180;-67
2022/12/17 17:34:46;;;;;;;0.50;0.50;;;-3.20;94.50;;;;;;5075872;28;20174;-66
2022/12/17 17:37:12;;;;;;;0.40;0.40;;;-3.30;94.30;;;;;;5075544;28;20423;-68
2022/12/17 17:39:38;;;;;;;0.63;0.63;;;-3.30;94.60;;;;;;5075698;28;20186;-66
2022/12/17 17:42:04;;;;;;;0.50;0.50;;;-3.20;94.80;;;;;;5075909;28;20222;-68
2022/12/17 17:44:29;;;;;;;0.40;0.40;;;-3.20;94.60;;;;;;5075629;28;20737;-68
2022/12/17 17:46:55;;;;;;;0.40;0.40;;;-3.00;94.70;;;;;;5075819;28;20404;-67
2022/12/17 17:49:21;;;;;;;0.50;0.50;;;-3.00;94.20;;;;;;5075239;28;20204;-68
2022/12/17 17:51:47;;;;;;;0.43;0.43;;;-3.20;93.90;;;;;;5075793;28;20611;-68
2022/12/17 17:54:12;;;;;;;0.50;0.50;;;-3.20;94.00;;;;;;5075453;28;20193;-70
2022/12/17 17:56:40;;;;;;;0.50;0.50;;;-3.20;94.30;;;;;;5075276;28;20408;-68
2022/12/17 17:59:20;;;;;;;1.27;1.25;;;-3.20;94.30;;;;;;5075176;28;20716;-67
2022/12/17 18:01:49;;;;;;;0.50;0.50;;;-3.10;94.10;;;;;;5075681;28;20500;-67
2022/12/17 18:04:17;;;;;;;0.50;0.50;;;-2.90;94.10;;;;;;5075554;28;20193;-67
2022/12/17 18:06:45;;;;;;;0.40;0.40;;;-2.80;94.30;;;;;;5075181;28;20165;-71
2022/12/17 18:09:12;;;;;;;0.93;0.93;;;-2.80;94.40;;;;;;5074876;28;20198;-67
2022/12/17 18:11:40;;;;;;;0.40;0.40;;;-2.70;94.30;;;;;;5075301;28;20227;-70
2022/12/17 18:14:07;;;;;;;0.50;0.50;;;-2.70;94.20;;;;;;5075125;28;20203;-70
2022/12/17 18:16:45;;;;;;;0.40;0.40;;;-2.60;94.30;;;;;;5075511;28;20609;-67
2022/12/17 18:19:12;;;;;;;0.40;0.40;;;-2.60;94.30;;;;;;5074897;28;20638;-67
2022/12/17 18:21:38;;;;;;;0.50;0.50;;;-2.50;94.30;;;;;;5074936;28;20611;-67
2022/12/17 18:24:05;;;;;;;0.50;0.50;;;-2.60;94.20;;;;;;5074918;28;20170;-67
2022/12/17 18:26:36;;;;;;;0.60;0.60;;;-2.60;94.40;;;;;;5075237;28;20299;-66
2022/12/17 18:29:07;;;;;;;0.50;0.50;;;-2.60;94.60;;;;;;5074704;28;20632;-71
2022/12/17 18:31:32;;;;;;;0.70;0.70;;;-2.50;94.80;;;;;;5074776;28;20249;-67
2022/12/17 18:34:00;;;;;;;0.40;0.40;;;-2.50;94.60;;;;;;5074700;28;20190;-67
2022/12/17 18:36:30;;;;;;;0.45;0.45;;;-2.60;94.50;;;;;;5074461;28;20189;-67
2022/12/17 18:38:58;;;;;;;0.40;0.40;;;-2.60;94.30;;;;;;5073191;28;20189;-67
2022/12/17 18:44:09;;;;;;;0.50;0.50;;;-2.60;93.80;;;;;;5074302;28;20192;-67
2022/12/17 18:46:35;;;;;;;0.40;0.40;;;-2.70;94.20;;;;;;5074470;28;20540;-67
2022/12/17 18:49:03;;;;;;;0.63;0.63;;;-2.60;94.60;;;;;;5073998;28;20212;-65
2022/12/17 18:51:29;;;;;;;0.40;0.40;;;-2.60;94.30;;;;;;5074124;28;20201;-67
2022/12/17 18:53:56;;;;;;;0.50;0.50;;;-2.60;94.20;;;;;;5074089;28;20642;-66
2022/12/17 18:56:22;;;;;;;0.68;0.68;;;-2.60;94.50;;;;;;5074092;28;20525;-66
2022/12/17 18:58:50;;;;;;;0.67;0.67;;;-2.60;94.60;;;;;;5073979;28;20201;-68
2022/12/17 19:01:27;;;;;;;0.63;0.63;;;-2.60;95.10;;;;;;5073989;28;20434;-68
2022/12/17 19:03:53;;;;;;;1.25;1.20;;;-2.60;95.30;;;;;;5074151;28;20170;-68
2022/12/17 19:06:20;;;;;;;0.30;0.30;;;-2.60;95.40;;;;;;5073750;28;20235;-67
2022/12/17 19:08:47;;;;;;;3.80;1.48;;;-2.60;95.40;;;;;;5073771;28;20209;-67
2022/12/17 19:11:14;;;;;;;0.45;0.45;;;-2.60;95.60;;;;;;5074014;28;20166;-66
2022/12/17 19:13:40;;;;;;;0.30;0.30;;;-2.60;95.30;;;;;;5073770;28;20223;-66
2022/12/17 19:16:09;;;;;;;1.90;1.90;;;-2.60;95.40;;;;;;5073718;28;20573;-67
2022/12/17 19:18:35;;;;;;;0.50;0.50;;;-2.50;95.50;;;;;;5073812;28;20186;-68
2022/12/17 19:21:01;;;;;;;0.50;0.50;;;-2.50;95.50;;;;;;5073835;28;20547;-67
2022/12/17 19:23:28;;;;;;;0.40;0.40;;;-2.50;95.70;;;;;;5073757;28;20169;-67
2022/12/17 19:25:54;;;;;;;0.40;0.40;;;-2.50;95.60;;;;;;5073518;28;20215;-67
2022/12/17 19:28:20;;;;;;;0.93;0.93;;;-2.50;95.60;;;;;;5073379;28;20271;-67
2022/12/17 19:30:45;;;;;;;0.67;0.67;;;-2.50;95.70;;;;;;5072391;28;20256;-68
2022/12/17 19:33:12;;;;;;;0.40;0.40;;;-2.40;95.70;;;;;;5073673;28;20166;-67
2022/12/17 19:35:37;;;;;;;0.40;0.40;;;-2.40;95.60;;;;;;5073350;28;20538;-66
2022/12/17 19:38:03;;;;;;;0.90;0.90;;;-2.40;95.50;;;;;;5073467;28;20193;-67
2022/12/17 19:40:29;;;;;;;0.70;0.70;;;-2.30;95.40;;;;;;5073464;28;20169;-68
2022/12/17 19:42:58;;;;;;;0.40;0.40;;;-2.30;94.70;;;;;;5073467;28;20170;-67
2022/12/17 19:45:24;;;;;;;0.60;0.60;;;-2.50;94.60;;;;;;5073354;28;20185;-67
2022/12/17 19:47:49;;;;;;;0.60;0.60;;;-2.50;94.60;;;;;;5073733;28;20246;-67
2022/12/17 19:50:15;;;;;;;3.07;2.77;;;-2.60;94.50;;;;;;5072064;28;20197;-66
2022/12/17 19:52:41;;;;;;;0.40;0.40;;;-2.60;94.70;;;;;;5077997;28;20899;-67
2022/12/17 19:55:07;;;;;;;0.47;0.47;;;-2.60;94.70;;;;;;5079911;28;20169;-68
2022/12/17 19:57:33;;;;;;;0.40;0.40;;;-2.60;94.60;;;;;;5080015;28;20177;-66
2022/12/17 19:59:59;;;;;;;0.60;0.60;;;-2.70;94.80;;;;;;5079940;28;20650;-67
2022/12/17 20:02:25;;;;;;;0.50;0.50;;;-2.70;94.90;;;;;;5080095;28;20169;-67
2022/12/17 20:04:50;;;;;;;0.40;0.40;;;-2.90;94.90;;;;;;5079933;28;20563;-67
2022/12/17 20:07:16;;;;;;;1.63;1.63;;;-2.80;95.40;;;;;;5078694;28;20423;-67
2022/12/17 20:09:44;;;;;;;1.97;1.87;;;-2.70;95.60;;;;;;5079988;28;20189;-67
2022/12/17 20:12:11;;;;;;;0.40;0.40;;;-2.60;95.40;;;;;;5079915;28;20299;-68
2022/12/17 20:14:36;;;;;;;0.47;0.47;;;-2.70;95.10;;;;;;5079917;28;20166;-68
2022/12/17 20:17:03;;;;;;;1.43;1.43;;;-2.70;95.30;;;;;;5078688;28;20177;-66
2022/12/17 20:19:31;;;;;;;0.60;0.60;;;-2.70;95.10;;;;;;5079938;28;20868;-67
2022/12/17 20:21:59;;;;;;;0.50;0.50;;;-2.70;95.20;;;;;;5079718;28;20256;-67
2022/12/17 20:24:24;;;;;;;0.40;0.40;;;-2.80;95.10;;;;;;5079528;28;20695;-67
2022/12/17 20:26:52;;;;;;;0.50;0.50;;;-2.80;95.00;;;;;;5079910;28;20177;-66
2022/12/17 20:29:18;;;;;;;0.50;0.50;;;-2.80;95.00;;;;;;5079620;28;20213;-66
2022/12/17 20:31:44;;;;;;;0.70;0.70;;;-2.80;94.80;;;;;;5079837;28;20197;-67
2022/12/17 20:34:13;;;;;;;0.60;0.60;;;-2.90;94.40;;;;;;5079506;28;20693;-66
2022/12/17 20:36:39;;;;;;;0.60;0.60;;;-3.00;94.50;;;;;;5079501;28;20177;-67
2022/12/17 20:39:05;;;;;;;0.40;0.40;;;-3.00;94.70;;;;;;5079546;28;20221;-66
2022/12/17 20:41:32;;;;;;;0.60;0.60;;;-3.00;95.50;;;;;;5079773;28;20169;-67
2022/12/17 20:44:05;;;;;;;1.38;1.35;;;-3.00;95.60;;;;;;5079487;28;20540;-67
2022/12/17 20:46:31;;;;;;;0.47;0.47;;;-3.10;94.90;;;;;;5079782;28;20166;-67
2022/12/17 20:48:58;;;;;;;0.50;0.50;;;-3.10;94.50;;;;;;5079375;28;20208;-67
2022/12/17 20:51:26;;;;;;;0.40;0.40;;;-3.10;94.60;;;;;;5079561;28;20180;-66
2022/12/17 20:53:54;;;;;;;0.40;0.40;;;-3.20;94.50;;;;;;5079519;28;20220;-68
2022/12/17 20:56:22;;;;;;;0.60;0.60;;;-3.20;94.80;;;;;;5079450;28;20174;-68
2022/12/17 20:58:52;;;;;;;0.50;0.50;;;-3.20;95.00;;;;;;5079237;28;20326;-67
2022/12/17 21:01:20;;;;;;;0.55;0.55;;;-3.30;94.70;;;;;;5079597;28;20192;-67
2022/12/17 21:03:48;;;;;;;0.40;0.40;;;-3.40;94.60;;;;;;5076976;28;20237;-66
2022/12/17 21:06:19;;;;;;;0.55;0.55;;;-3.50;94.60;;;;;;5076103;28;20169;-67
2022/12/17 21:08:47;;;;;;;0.60;0.60;;;-3.50;95.00;;;;;;5075932;28;20209;-65
2022/12/17 21:11:14;;;;;;;0.50;0.50;;;-3.50;94.90;;;;;;5076330;28;20165;-66
2022/12/17 21:13:39;;;;;;;0.60;0.60;;;-3.50;95.10;;;;;;5076032;28;20208;-67
2022/12/17 21:16:10;;;;;;;0.57;0.57;;;-3.40;95.10;;;;;;5075844;28;20197;-66
2022/12/17 21:18:35;;;;;;;0.40;0.40;;;-3.50;95.10;;;;;;5076037;28;20204;-65
2022/12/17 21:21:07;;;;;;;0.47;0.47;;;-3.60;95.40;;;;;;5075927;28;20184;-66
2022/12/17 21:23:34;;;;;;;0.40;0.40;;;-3.50;95.60;;;;;;5075963;28;20653;-66
2022/12/17 21:26:10;;;;;;;0.43;0.43;;;-3.40;95.30;;;;;;5075855;28;20212;-67
2022/12/17 21:28:37;;;;;;;2.05;1.95;;;-3.50;95.40;;;;;;5076300;28;20205;-67
2022/12/17 21:31:03;;;;;;;0.50;0.50;;;-3.40;95.50;;;;;;5075947;28;20575;-67
2022/12/17 21:33:29;;;;;;;0.70;0.70;;;-3.50;95.10;;;;;;5075728;28;20169;-67
2022/12/17 21:36:04;;;;;;;0.50;0.50;;;-3.50;94.80;;;;;;5075436;28;20235;-66
2022/12/17 21:38:30;;;;;;;0.93;0.93;;;-3.50;94.90;;;;;;5075892;28;20587;-66
2022/12/17 21:41:03;;;;;;;1.15;1.15;;;-3.60;95.80;;;;;;5075565;28;20627;-66
2022/12/17 21:43:29;;;;;;;0.40;0.40;;;-3.50;95.70;;;;;;5075758;28;20311;-67
2022/12/17 21:45:56;;;;;;;0.50;0.50;;;-3.40;95.60;;;;;;5075301;28;20207;-66
2022/12/17 21:48:23;;;;;;;0.40;0.40;;;-3.40;95.50;;;;;;5073603;28;20204;-67
2022/12/17 21:50:49;;;;;;;0.50;0.50;;;-3.50;95.30;;;;;;5074343;28;20532;-67
2022/12/17 21:53:15;;;;;;;0.60;0.60;;;-3.60;95.30;;;;;;5075489;28;20172;-67
2022/12/17 21:55:40;;;;;;;0.50;0.50;;;-3.60;95.10;;;;;;5075119;28;20284;-66
2022/12/17 21:58:07;;;;;;;0.50;0.50;;;-3.60;94.80;;;;;;5075060;28;20193;-66
2022/12/17 22:00:33;;;;;;;0.60;0.60;;;-3.70;94.90;;;;;;5073959;28;20660;-67
2022/12/17 22:02:59;;;;;;;3.05;2.95;;;-3.70;95.20;;;;;;5075286;28;20213;-67
2022/12/17 22:05:26;;;;;;;0.40;0.40;;;-3.70;95.00;;;;;;5074960;28;20197;-65
2022/12/17 22:07:51;;;;;;;0.52;0.52;;;-3.70;94.80;;;;;;5075077;28;20451;-66
2022/12/17 22:10:17;;;;;;;2.03;1.93;;;-3.70;94.90;;;;;;5074899;28;20594;-65
2022/12/17 22:15:27;;;;;;;0.68;0.68;;;-3.90;94.90;;;;;;5074661;28;20220;-67
2022/12/17 22:17:54;;;;;;;0.50;0.50;;;-3.80;95.10;;;;;;5075044;28;20173;-66
2022/12/17 22:20:20;;;;;;;1.10;1.00;;;-3.90;94.90;;;;;;5074618;28;20182;-66
2022/12/17 22:22:45;;;;;;;0.40;0.40;;;-4.00;95.40;;;;;;5074724;28;20708;-66
2022/12/17 22:25:11;;;;;;;0.53;0.53;;;-4.00;95.50;;;;;;5074533;28;20451;-66
2022/12/17 22:27:38;;;;;;;1.33;1.27;;;-3.90;95.50;;;;;;5074474;28;20284;-65
2022/12/17 22:33:02;;;;;;;0.50;0.50;;;-4.10;95.20;;;;;;5090222;28;20267;-66
2022/12/17 22:35:36;;;;;;;1.02;1.02;;;-4.10;95.50;;;;;;5074316;28;20249;-67
2022/12/17 22:38:03;;;;;;;0.60;0.60;;;-4.10;95.30;;;;;;5074159;28;20186;-66
2022/12/17 22:40:34;;;;;;;0.63;0.63;;;-4.10;95.30;;;;;;5074537;28;20256;-65
2022/12/17 22:45:44;;;;;;;2.90;2.78;;;-4.00;95.20;;;;;;5074144;28;20256;-67
2022/12/17 22:48:11;;;;;;;0.53;0.53;;;-4.20;97.70;;;;;;5074262;28;20293;-67
2022/12/17 22:50:38;;;;;;;1.13;1.13;;;-4.10;95.10;;;;;;5074164;28;20166;-67
2022/12/17 22:53:04;;;;;;;3.95;1.77;;;-4.10;95.00;;;;;;5074192;28;20183;-65
2022/12/17 22:55:30;;;;;;;0.53;0.53;;;-4.10;94.80;;;;;;5073904;28;20162;-66
2022/12/17 22:57:56;;;;;;;0.40;0.40;;;-4.00;94.90;;;;;;5074110;28;20452;-67
2022/12/17 23:00:25;;;;;;;0.63;0.63;;;-3.90;94.70;;;;;;5073868;28;20610;-66
2022/12/17 23:02:53;;;;;;;1.10;1.10;;;-3.90;94.60;;;;;;5074137;28;20171;-66
2022/12/17 23:05:20;;;;;;;2.42;2.30;;;-3.90;94.60;;;;;;5073751;28;20252;-67
2022/12/17 23:07:46;;;;;;;1.15;1.05;;;-4.10;94.50;;;;;;5073933;28;20618;-67
2022/12/17 23:10:11;;;;;;;0.70;0.70;;;-4.10;94.40;;;;;;5073711;28;20194;-68
2022/12/17 23:12:49;;;;;;;1.07;1.07;;;-4.10;94.40;;;;;;5073960;28;20761;-65
2022/12/17 23:15:16;;;;;;;0.90;0.90;;;-4.10;94.50;;;;;;5073570;28;20536;-67
2022/12/17 23:17:42;;;;;;;0.60;0.60;;;-4.20;94.50;;;;;;5073810;28;20623;-66
2022/12/17 23:20:08;;;;;;;0.60;0.60;;;-4.20;94.60;;;;;;5073648;28;20224;-67
2022/12/17 23:22:39;;;;;;;0.60;0.60;;;-4.20;94.80;;;;;;5073953;28;20454;-67
2022/12/17 23:25:05;;;;;;;0.68;0.68;;;-4.20;94.60;;;;;;5073599;28;20210;-67
2022/12/17 23:27:31;;;;;;;0.50;0.50;;;-4.20;94.70;;;;;;5073028;28;20304;-67
2022/12/17 23:29:57;;;;;;;0.50;0.50;;;-4.10;94.80;;;;;;5073754;28;20189;-66
2022/12/17 23:32:23;;;;;;;1.27;1.27;;;-4.20;94.70;;;;;;5073602;28;20499;-66
2022/12/17 23:34:48;;;;;;;0.80;0.80;;;-4.10;94.50;;;;;;5073416;28;20223;-67
2022/12/17 23:37:14;;;;;;;0.63;0.63;;;-4.10;94.40;;;;;;5073437;28;20189;-67
2022/12/17 23:39:40;;;;;;;0.60;0.60;;;-4.30;94.20;;;;;;5073449;28;20185;-67
2022/12/17 23:42:05;;;;;;;0.70;0.70;;;-4.30;94.30;;;;;;5073941;28;20203;-67
2022/12/17 23:44:31;;;;;;;0.50;0.50;;;-4.40;94.40;;;;;;5073235;28;20177;-67
2022/12/17 23:46:57;;;;;;;0.70;0.70;;;-4.30;94.30;;;;;;5073544;28;20218;-67
2022/12/17 23:49:22;;;;;;;0.60;0.60;;;-4.30;94.30;;;;;;5073241;28;20262;-66
2022/12/17 23:51:48;;;;;;;0.90;0.90;;;-4.30;94.40;;;;;;5073370;28;20245;-67
2022/12/17 23:54:13;;;;;;;0.70;0.70;;;-4.40;94.30;;;;;;5072970;28;20166;-67
2022/12/17 23:56:39;;;;;;;0.60;0.60;;;-4.50;94.40;;;;;;5073515;28;20646;-67
2022/12/17 23:59:05;;;;;;;0.80;0.80;;;-4.50;94.50;;;;;;5073250;28;20189;-66
